Station: Portable Rfsnsw02  

  Atmospheric Gas Attenuation - ITU Rec 676-11   ----------------- dB/100km -----------------
Date Time Temp RH % AH g/m3 Dew Point Wind Direction Speed kph Gust kph Barometer mB Rainfall Since 9am 24GHz 47GHz 76GHz 122GHz 134GHz 241GHz
08/05 12:20 8.3 100 8.43 8.3 17 22 1013.1 0.6 19.5 27.3 41.9 110.1 103.3 354.8
08/05 12:10 8.2 100 8.38 8.2 20 22 1013.1 0.6 19.4 27.2 41.8 109.7 102.7 352.8
08/05 12:00 8 100 8.27 8 20 26 1013.1 0.4 19.2 27.1 41.4 108.7 101.4 348.2
08/05 11:50 7.9 100 8.22 7.9 19 22 1013.1 0.4 19.1 27.0 41.2 108.3 100.8 346.2
08/05 11:40 7.9 100 8.22 7.9 17 20 1013.1 0.4 19.1 27.0 41.2 108.3 100.8 346.2
08/05 11:30 7.6 100 8.06 7.6 19 22 1013.1 0.4 18.7 26.8 40.7 106.8 99.0 339.6
08/05 11:20 7.5 100 8.01 7.5 15 20 1013.1 0.4 18.6 26.8 40.6 106.4 98.4 337.6
08/05 11:10 7.4 100 7.96 7.4 17 20 1013.1 0.2 18.5 26.7 40.4 106.0 97.8 335.6
08/05 11:00 7.4 100 7.96 7.4 15 19 1013.1 0.2 18.5 26.7 40.4 106.0 97.8 335.6
08/05 10:50 7.3 100 7.9 7.3 19 24 1013.1 0.2 18.4 26.7 40.2 105.4 97.1 333.0
08/05 10:40 7.1 100 7.8 7.1 15 20 1013.1 0.2 18.2 26.5 39.9 104.6 95.9 329.0
08/05 10:30 7.1 100 7.8 7.1 17 20 1013.1 0.2 18.2 26.5 39.9 104.6 95.9 329.0
08/05 10:20 6.9 100 7.7 6.9 17 20 1013.1 0.2 18.0 26.4 39.5 103.7 94.8 324.9
08/05 10:10 6.9 100 7.7 6.9 17 20 1013.1 0.2 18.0 26.4 39.5 103.7 94.8 324.9
08/05 10:00 6.7 100 7.6 6.7 15 19 1013.1 0.2 17.8 26.3 39.2 102.8 93.6 320.8
08/05 09:50 6.5 100 7.5 6.5 19 20 1013.1 0 17.6 26.2 38.9 101.9 92.5 316.7
08/05 09:40 6.3 100 7.41 6.3 15 19 1013.1 0 17.4 26.1 38.6 101.2 91.4 313.1
08/05 09:20 6.1 100 7.31 6.1 17 20 1013.1 0 17.2 26.0 38.3 100.3 90.3 309.0
08/05 09:10 6 99 7.19 5.9 17 22 1013.1 0 16.9 25.8 37.8 99.1 88.7 303.6
08/05 09:00 5.9 100 7.22 5.9 19 26 1013.1 0 17.0 25.9 38.0 99.5 89.3 305.4
08/05 08:50 5.8 100 7.17 5.8 24 28 1013.1 0 16.9 25.8 37.8 99.1 88.7 303.4
08/05 08:40 5.8 100 7.17 5.8 26 28 1013.1 0 16.9 25.8 37.8 99.1 88.7 303.4
08/05 07:40 5.1 100 6.85 5.1 20 22 1013.1 0 16.2 25.5 36.8 96.4 85.0 290.4
08/05 04:10 5 99 6.73 4.9 28 30 1013.1 0 16.0 25.3 36.3 95.1 83.5 284.9
08/05 04:00 5 99 6.73 4.8 30 32 1013.1 0 16.0 25.3 36.3 95.1 83.5 284.9
08/05 03:50 5.1 97 6.64 4.6 32 35 1013.1 0 15.8 25.2 35.9 94.0 82.1 280.2
08/05 03:40 5.3 95 6.59 4.5 28 32 1013.1 0 15.6 25.0 35.6 93.2 81.2 277.1
08/05 03:30 5.3 93 6.45 4.3 19 22 1013.1 0 15.3 24.8 35.0 91.7 79.3 270.4
08/05 03:20 5.3 91 6.31 4 11 15 1013.1 0 15.0 24.5 34.5 90.1 77.4 263.7
08/05 03:10 5.2 91 6.27 3.9 7 9 1013.1 0 15.0 24.5 34.3 89.8 76.9 262.1
08/05 03:00 5.3 91 6.31 3.9 7 9 1013.1 0 15.0 24.5 34.5 90.1 77.4 263.7
08/05 02:50 5.3 89 6.17 3.7 9 15 1013.1 0 14.7 24.3 33.9 88.6 75.5 257.0
08/05 02:40 5.2 89 6.13 3.6 7 11 1013.1 0 14.7 24.3 33.8 88.3 75.0 255.5
08/05 02:30 5.1 90 6.16 3.6 7 11 1013.1 0 14.7 24.4 33.9 88.7 75.5 257.2
08/05 02:20 5.2 89 6.13 3.5 11 13 1013.1 0 14.7 24.3 33.8 88.3 75.0 255.5
08/05 02:10 5.4 87 6.07 3.5 11 15 1013.1 0 14.5 24.1 33.4 87.4 74.0 252.0
08/05 02:00 5.2 88 6.06 3.4 19 26 1013.1 0 14.5 24.2 33.5 87.5 74.1 252.2
08/05 01:50 5.3 87 6.03 3.4 28 33 1013.1 0 14.4 24.1 33.3 87.1 73.6 250.4
08/05 01:40 5.3 87 6.03 3.4 26 30 1013.1 0 14.4 24.1 33.3 87.1 73.6 250.4
08/05 01:30 5.3 86 5.96 3.2 28 33 1013.1 0 14.3 24.0 33.0 86.3 72.7 247.2
08/05 01:20 5.4 86 6 3.2 24 28 1013.1 0 14.4 24.0 33.1 86.6 73.1 248.7
08/05 01:10 5.5 86 6.04 3.3 22 24 1013.1 0 14.4 24.0 33.3 86.9 73.5 250.3
08/05 01:00 5.5 85 5.97 3.2 20 26 1013.1 0 14.3 23.9 33.0 86.2 72.6 247.0
08/05 00:50 5.4 86 6 3.2 17 20 1013.1 0 14.4 24.0 33.1 86.6 73.1 248.7
08/05 00:40 5.5 84 5.9 3.1 13 17 1013.1 0 14.1 23.8 32.7 85.4 71.7 243.7
08/05 00:30 5.5 84 5.9 3 13 15 1013.1 0 14.1 23.8 32.7 85.4 71.7 243.7
08/05 00:10 5.8 82 5.88 2.9 15 19 1013.1 0 14.1 23.7 32.5 84.9 71.1 241.9
07/05 23:50 5.8 81 5.81 2.8 19 22 1013.1 0 13.9 23.6 32.2 84.1 70.2 238.6
07/05 23:40 5.8 80 5.73 2.7 20 24 1013.1 0 13.8 23.5 31.9 83.3 69.2 234.9
07/05 23:30 5.8 81 5.81 2.8 20 22 1013.1 0 13.9 23.6 32.2 84.1 70.2 238.6
07/05 23:20 5.7 81 5.77 2.7 20 22 1013.1 0 13.9 23.6 32.1 83.8 69.8 237.1
07/05 23:10 5.7 80 5.7 2.6 17 24 1013.1 0 13.7 23.4 31.8 83.1 68.8 233.8
07/05 23:00 5.6 81 5.73 2.6 13 17 1013.1 0 13.8 23.5 32.0 83.5 69.3 235.5
07/05 22:50 5.5 80 5.62 2.4 9 11 1013.1 0 13.5 23.4 31.6 82.4 68.0 230.7
07/05 22:40 5.4 80 5.59 2.3 7 11 1013.1 0 13.5 23.3 31.5 82.2 67.7 229.6
07/05 22:30 5.3 80 5.55 2.1 9 11 1013.1 0 13.4 23.3 31.4 81.9 67.2 228.1
07/05 22:20 5.1 80 5.48 1.9 9 11 1013.1 0 13.3 23.2 31.2 81.4 66.5 225.4
07/05 22:10 5.1 80 5.48 1.9 9 11 1013.1 0 13.3 23.2 31.2 81.4 66.5 225.4
07/05 22:00 5 79 5.37 1.6 11 13 1013.1 0 13.0 23.1 30.8 80.3 65.1 220.7
07/05 21:50 4.9 80 5.4 1.7 13 15 1013.1 0 13.1 23.2 30.9 80.7 65.6 222.3
07/05 21:40 4.6 80 5.3 1.4 15 15 1013.1 0 12.9 23.1 30.7 80.0 64.5 218.5
07/05 21:30 4.4 81 5.29 1.4 17 19 1013.1 0 12.9 23.1 30.7 80.1 64.6 218.6
07/05 21:20 4.5 80 5.26 1.4 13 17 1013.1 0 12.8 23.0 30.5 79.6 64.1 217.0
07/05 21:10 4.6 80 5.3 1.5 17 19 1013.1 0 12.9 23.1 30.7 80.0 64.5 218.5
07/05 21:00 4.7 80 5.33 1.5 19 20 1013.1 0 12.9 23.1 30.7 80.2 64.8 219.6
07/05 20:50 4.9 78 5.27 1.4 22 26 1013.1 0 12.8 23.0 30.4 79.3 63.9 216.3
07/05 20:40 4.9 77 5.2 1.2 24 28 1013.1 0 12.7 22.9 30.2 78.6 63.0 213.1
07/05 20:30 5 77 5.24 1.3 24 28 1013.1 0 12.7 22.9 30.3 78.9 63.4 214.7
07/05 20:20 5.2 75 5.17 1.1 28 30 1013.1 0 12.6 22.7 29.9 78.0 62.4 211.0
07/05 20:10 5.3 73 5.06 0.9 26 30 1013.1 0 12.3 22.5 29.5 76.7 60.9 205.7
07/05 20:00 5.4 72 5.03 0.8 30 32 1013.1 0 12.3 22.5 29.3 76.3 60.4 204.1
07/05 19:50 5.5 71 4.99 0.7 33 43 1013.1 0 12.2 22.4 29.1 75.8 59.8 202.1
07/05 19:40 5.6 70 4.95 0.5 32 39 1013.1 0 12.1 22.3 28.9 75.3 59.2 200.0
07/05 19:30 5.6 70 4.95 0.5 26 32 1013.1 0 12.1 22.3 28.9 75.3 59.2 200.0
07/05 19:20 5.6 69 4.88 0.4 24 26 1013.1 0 12.0 22.2 28.7 74.6 58.3 196.9
07/05 19:10 5.5 70 4.92 0.4 17 22 1013.1 0 12.0 22.3 28.8 75.1 58.9 198.9
07/05 19:00 5.7 69 4.91 0.4 24 32 1013.1 0 12.0 22.2 28.7 74.8 58.6 198.0
07/05 18:50 5.7 68 4.84 0.2 24 33 1013.1 0 11.9 22.1 28.5 74.1 57.7 194.9
07/05 18:40 5.8 67 4.8 0.1 26 32 1013.1 0 11.8 22.0 28.3 73.6 57.2 192.8
07/05 18:30 5.7 68 4.84 0.2 22 26 1013.1 0 11.9 22.1 28.5 74.1 57.7 194.9
07/05 18:20 5.7 67 4.77 0.1 20 28 1013.1 0 11.7 22.0 28.2 73.4 56.9 191.7
07/05 18:10 5.8 66 4.73 0 22 32 1013.1 0 11.6 21.9 28.0 72.9 56.3 189.7
07/05 18:00 6 65 4.72 -0.1 22 30 1013.1 0 11.6 21.8 27.9 72.6 56.0 188.8
07/05 17:50 6.1 64 4.68 -0.1 22 28 1013.1 0 11.5 21.7 27.7 72.1 55.4 186.8
07/05 17:40 6.1 65 4.75 0.1 19 30 1013.1 0 11.7 21.9 28.0 72.8 56.3 189.9
07/05 17:20 6.4 63 4.7 0 24 32 1013.1 0 11.5 21.7 27.7 72.0 55.5 187.0
07/05 17:10 6.5 63 4.73 -0.1 22 28 1013.1 0 11.6 21.7 27.8 72.2 55.8 188.1
07/05 17:00 6.6 61 4.61 -0.4 26 30 1013.1 0 11.3 21.5 27.3 70.9 54.2 182.6
07/05 16:50 6.8 61 4.67 -0.2 28 33 1013.1 0 11.5 21.6 27.4 71.4 54.8 184.8
07/05 16:40 7.2 57 4.48 -0.7 32 41 1013.1 0 11.0 21.2 26.6 69.1 52.2 175.6
07/05 16:30 7.3 58 4.58 -0.4 41 46 1013.1 0 11.3 21.3 26.9 70.0 53.4 179.7
07/05 16:20 7.7 55 4.46 -0.6 37 44 1013.1 0 11.0 21.0 26.4 68.5 51.7 173.7
07/05 16:10 7.9 57 4.68 0 33 37 1013.1 0 11.4 21.3 27.1 70.5 54.2 182.7
07/05 16:00 7.9 57 4.68 0 37 44 1013.1 0 11.4 21.3 27.1 70.5 54.2 182.7
07/05 15:50 8.1 58 4.83 0.4 39 44 1013.1 0 11.8 21.5 27.6 71.8 55.9 188.7
07/05 15:40 8.1 58 4.83 0.3 33 37 1013.1 0 11.8 21.5 27.6 71.8 55.9 188.7
07/05 15:30 8 58 4.8 0.2 35 39 1013.1 0 11.7 21.5 27.5 71.6 55.6 187.6
07/05 15:20 8.2 57 4.78 0.2 33 35 1013.1 0 11.7 21.4 27.4 71.2 55.2 186.3
07/05 15:10 8.1 58 4.83 0.4 33 37 1013.1 0 11.8 21.5 27.6 71.8 55.9 188.7
07/05 15:00 8.5 57 4.87 0.6 35 39 1013.1 0 11.8 21.5 27.6 71.8 56.1 189.4

Last Refresh: 08-May-2026 12:07:17

Bureau of Meteorology